createdAt,value
2018-09-26T00:00:40.152Z,99.90
2018-09-26T00:05:16.153Z,99.90
2018-09-26T00:07:45.362Z,99.90
2018-09-26T00:10:15.066Z,99.90
2018-09-26T00:12:43.492Z,99.90
2018-09-26T00:15:12.041Z,99.90
2018-09-26T00:17:40.403Z,99.90
2018-09-26T00:20:10.029Z,99.90
2018-09-26T00:22:38.405Z,99.90
2018-09-26T00:25:06.974Z,99.90
2018-09-26T00:27:35.456Z,99.90
2018-09-26T00:30:04.543Z,99.90
2018-09-26T00:32:33.042Z,99.90
2018-09-26T00:35:01.456Z,99.90
2018-09-26T00:37:29.899Z,99.90
2018-09-26T00:39:58.278Z,99.90
2018-09-26T00:42:26.706Z,99.90
2018-09-26T00:44:55.113Z,99.90
2018-09-26T00:47:23.537Z,99.90
2018-09-26T00:49:51.915Z,99.90
2018-09-26T00:52:20.337Z,99.90
2018-09-26T00:54:48.791Z,99.90
2018-09-26T00:57:17.534Z,99.90
2018-09-26T00:59:45.904Z,99.90
2018-09-26T01:02:14.323Z,99.90
2018-09-26T01:04:42.729Z,99.90
2018-09-26T01:07:11.137Z,99.90
2018-09-26T01:09:39.572Z,99.90
2018-09-26T01:12:07.972Z,99.90
2018-09-26T01:14:36.961Z,99.90
2018-09-26T01:17:05.403Z,99.90
2018-09-26T01:19:33.740Z,99.90
2018-09-26T01:22:02.143Z,99.90
2018-09-26T01:24:30.809Z,99.90
2018-09-26T01:27:00.045Z,99.90
2018-09-26T01:29:28.414Z,99.90
2018-09-26T01:31:56.822Z,99.90
2018-09-26T01:34:25.489Z,99.90
2018-09-26T01:36:54.020Z,99.90
2018-09-26T01:39:22.444Z,99.90
2018-09-26T01:41:50.887Z,99.90
2018-09-26T01:44:20.014Z,99.90
2018-09-26T01:46:49.068Z,99.90
2018-09-26T01:49:17.585Z,99.90
2018-09-26T01:51:46.073Z,99.90
2018-09-26T01:54:14.568Z,99.90
2018-09-26T01:56:42.981Z,99.90
2018-09-26T01:59:11.383Z,99.90
2018-09-26T02:01:39.949Z,99.90
2018-09-26T02:04:08.431Z,99.90
2018-09-26T02:06:36.802Z,99.90
2018-09-26T02:09:08.281Z,99.90
2018-09-26T02:11:36.843Z,99.90
2018-09-26T02:14:05.377Z,99.90
2018-09-26T02:16:33.830Z,99.90
2018-09-26T02:19:02.346Z,99.90
2018-09-26T02:21:31.343Z,99.90
2018-09-26T02:23:59.751Z,99.90
2018-09-26T02:26:28.168Z,99.90
2018-09-26T02:28:56.577Z,99.90
2018-09-26T02:31:25.040Z,99.90
2018-09-26T02:33:53.400Z,99.90
2018-09-26T02:36:21.812Z,99.90
2018-09-26T02:38:50.190Z,99.90
2018-09-26T02:41:18.632Z,99.90
2018-09-26T02:43:47.156Z,99.90
2018-09-26T02:46:15.548Z,99.90
2018-09-26T02:48:49.460Z,99.90
2018-09-26T02:51:18.008Z,99.90
2018-09-26T02:53:46.634Z,99.90
2018-09-26T02:56:15.028Z,99.90
2018-09-26T02:58:43.479Z,99.90
2018-09-26T03:01:11.912Z,99.90
2018-09-26T03:03:40.427Z,99.90
2018-09-26T03:06:09.364Z,99.90
2018-09-26T03:08:37.762Z,99.90
2018-09-26T03:11:06.157Z,99.90
2018-09-26T03:13:34.611Z,99.90
2018-09-26T03:16:02.990Z,99.90
2018-09-26T03:18:31.506Z,99.90
2018-09-26T03:21:00.458Z,99.90
2018-09-26T03:23:29.379Z,99.90
2018-09-26T03:25:57.876Z,99.90
2018-09-26T03:28:26.246Z,99.90
2018-09-26T03:30:54.726Z,99.90
2018-09-26T03:33:23.286Z,99.90
2018-09-26T03:35:51.734Z,99.90
2018-09-26T03:38:20.733Z,99.90
2018-09-26T03:40:49.151Z,99.90
2018-09-26T03:43:17.601Z,99.90
2018-09-26T03:45:46.081Z,99.90
2018-09-26T03:48:14.549Z,99.90
2018-09-26T03:50:42.920Z,99.90
2018-09-26T03:53:11.368Z,99.90
2018-09-26T03:55:39.783Z,99.90
2018-09-26T03:58:08.846Z,99.90
2018-09-26T04:00:37.547Z,99.90
2018-09-26T04:03:06.014Z,99.90
2018-09-26T04:05:34.387Z,99.90
2018-09-26T04:08:02.874Z,99.90
2018-09-26T04:10:31.249Z,99.90
2018-09-26T04:12:59.826Z,99.90
2018-09-26T04:15:28.189Z,99.90
2018-09-26T04:17:56.607Z,99.90
2018-09-26T04:20:25.728Z,99.90
2018-09-26T04:22:54.067Z,99.90
2018-09-26T04:25:22.553Z,99.90
2018-09-26T04:27:51.098Z,99.90
2018-09-26T04:30:19.575Z,99.90
2018-09-26T04:32:48.045Z,99.90
2018-09-26T04:35:16.350Z,99.90
2018-09-26T04:37:44.849Z,99.90
2018-09-26T04:40:13.251Z,99.90
2018-09-26T04:42:41.650Z,99.90
2018-09-26T04:45:10.717Z,99.90
2018-09-26T04:47:39.209Z,99.90
2018-09-26T04:50:08.169Z,99.90
2018-09-26T04:52:36.529Z,99.90
2018-09-26T04:55:04.983Z,99.90
2018-09-26T04:57:33.358Z,99.90
2018-09-26T05:00:01.798Z,99.90
2018-09-26T05:02:30.214Z,99.90
2018-09-26T05:04:58.858Z,99.90
2018-09-26T05:07:27.292Z,99.90
2018-09-26T05:09:55.660Z,99.90
2018-09-26T05:12:24.047Z,99.90
2018-09-26T05:14:52.511Z,99.90
2018-09-26T05:17:21.433Z,99.90
2018-09-26T05:19:49.792Z,99.90
2018-09-26T05:22:18.141Z,99.90
2018-09-26T05:24:46.538Z,99.90
2018-09-26T05:27:15.014Z,99.90
2018-09-26T05:29:43.464Z,99.90
2018-09-26T05:32:11.879Z,99.90
2018-09-26T05:34:40.805Z,99.90
2018-09-26T05:37:09.298Z,99.90
2018-09-26T05:39:37.687Z,99.90
2018-09-26T05:42:06.091Z,99.90
2018-09-26T05:44:34.576Z,99.90
2018-09-26T05:47:02.990Z,99.90
2018-09-26T05:49:31.402Z,99.90
2018-09-26T05:51:59.807Z,99.90
2018-09-26T05:54:28.220Z,99.90
2018-09-26T05:56:56.615Z,99.90
2018-09-26T05:59:25.049Z,99.90
2018-09-26T06:01:53.515Z,99.90
2018-09-26T06:04:21.941Z,99.90
2018-09-26T06:06:50.386Z,99.90
2018-09-26T06:09:18.735Z,99.90
2018-09-26T06:11:47.229Z,99.90
2018-09-26T06:14:15.656Z,99.90
2018-09-26T06:16:44.070Z,99.90
2018-09-26T06:19:12.515Z,99.90
2018-09-26T06:21:40.918Z,99.90
2018-09-26T06:24:09.463Z,99.90
2018-09-26T06:26:37.919Z,99.90
2018-09-26T06:29:06.540Z,99.90
2018-09-26T06:31:35.237Z,99.90
2018-09-26T06:34:03.742Z,99.90
2018-09-26T06:36:32.096Z,99.90
2018-09-26T06:39:01.212Z,99.90
2018-09-26T06:41:29.586Z,99.90
2018-09-26T06:43:57.974Z,99.90
2018-09-26T06:46:26.363Z,99.90
2018-09-26T06:48:54.854Z,99.90
2018-09-26T06:51:23.263Z,99.90
2018-09-26T06:53:51.866Z,99.90
2018-09-26T06:56:20.261Z,99.90
2018-09-26T06:58:48.667Z,99.90
2018-09-26T07:01:17.123Z,99.90
2018-09-26T07:03:46.172Z,99.90
2018-09-26T07:06:14.605Z,99.90
2018-09-26T07:08:43.743Z,99.90
2018-09-26T07:11:12.387Z,99.90
2018-09-26T07:13:40.751Z,99.90
2018-09-26T07:16:09.154Z,99.90
2018-09-26T07:18:37.764Z,99.90
2018-09-26T07:21:06.278Z,99.90
2018-09-26T07:23:34.703Z,99.90
2018-09-26T07:26:03.103Z,99.90
2018-09-26T07:28:31.522Z,99.90
2018-09-26T07:31:00.058Z,99.90
2018-09-26T07:33:28.573Z,99.90
2018-09-26T07:35:56.988Z,99.90
2018-09-26T07:38:25.438Z,99.90
2018-09-26T07:40:54.031Z,99.90
2018-09-26T07:43:22.514Z,99.90
2018-09-26T07:45:51.000Z,99.90
2018-09-26T07:48:19.364Z,99.90
2018-09-26T07:50:47.790Z,99.90
2018-09-26T07:53:16.220Z,99.90
2018-09-26T07:55:44.734Z,99.90
2018-09-26T07:58:13.889Z,99.90
2018-09-26T08:00:42.324Z,99.90
2018-09-26T08:03:10.821Z,99.90
2018-09-26T08:05:39.336Z,99.90
2018-09-26T08:08:08.622Z,99.80
2018-09-26T08:10:37.145Z,99.00
2018-09-26T08:13:06.507Z,98.80
2018-09-26T08:15:34.986Z,98.60
2018-09-26T08:18:03.505Z,98.20
2018-09-26T08:20:31.818Z,97.70
2018-09-26T08:23:00.251Z,97.40
2018-09-26T08:25:28.675Z,96.70
2018-09-26T08:27:57.114Z,94.70
2018-09-26T08:30:25.517Z,93.80
2018-09-26T08:32:54.007Z,91.10
2018-09-26T08:35:23.210Z,86.70
2018-09-26T08:37:51.731Z,84.90
2018-09-26T08:40:20.214Z,79.40
2018-09-26T08:42:48.650Z,78.00
2018-09-26T08:45:17.165Z,78.10
2018-09-26T08:47:45.611Z,74.70
2018-09-26T08:50:14.000Z,70.70
2018-09-26T08:52:42.448Z,69.70
2018-09-26T08:55:10.888Z,70.10
2018-09-26T08:57:39.318Z,68.80
2018-09-26T09:00:08.285Z,66.80
2018-09-26T09:02:37.459Z,63.80
2018-09-26T09:05:06.020Z,60.90
2018-09-26T09:07:34.383Z,58.80
2018-09-26T09:10:02.900Z,57.60
2018-09-26T09:12:31.250Z,57.00
2018-09-26T09:14:59.645Z,59.00
2018-09-26T09:17:28.248Z,57.30
2018-09-26T09:19:56.753Z,56.90
2018-09-26T09:22:25.229Z,54.80
2018-09-26T09:24:53.663Z,55.10
2018-09-26T09:27:22.186Z,54.70
2018-09-26T09:29:50.534Z,50.90
2018-09-26T09:32:18.963Z,51.10
2018-09-26T09:34:47.297Z,51.20
2018-09-26T09:37:15.746Z,50.10
2018-09-26T09:39:44.371Z,49.10
2018-09-26T09:42:13.690Z,48.90
2018-09-26T09:44:42.931Z,48.70
2018-09-26T09:47:11.480Z,49.80
2018-09-26T09:49:40.557Z,50.20
2018-09-26T09:52:08.984Z,49.50
2018-09-26T09:54:37.478Z,50.90
2018-09-26T09:57:05.962Z,50.20
2018-09-26T09:59:34.371Z,51.20
2018-09-26T10:02:03.472Z,51.60
2018-09-26T10:04:31.998Z,53.00
2018-09-26T10:07:00.609Z,54.10
2018-09-26T10:09:29.562Z,56.00
2018-09-26T10:11:58.041Z,56.00
2018-09-26T10:14:26.503Z,54.50
2018-09-26T10:16:54.918Z,53.40
2018-09-26T10:19:23.538Z,53.10
2018-09-26T10:21:52.516Z,52.20
2018-09-26T10:24:20.875Z,52.60
2018-09-26T10:26:49.258Z,52.40
2018-09-26T10:29:17.631Z,51.80
2018-09-26T10:31:46.002Z,51.50
2018-09-26T10:34:14.474Z,51.80
2018-09-26T10:36:42.859Z,51.70
2018-09-26T10:39:11.915Z,51.20
2018-09-26T10:41:40.255Z,51.30
2018-09-26T10:44:08.912Z,53.30
2018-09-26T10:46:37.442Z,53.80
2018-09-26T10:49:05.772Z,51.30
2018-09-26T10:51:34.161Z,51.50
2018-09-26T10:54:02.532Z,53.10
2018-09-26T10:56:31.913Z,51.60
2018-09-26T10:59:00.555Z,52.70
2018-09-26T11:01:28.930Z,52.10
2018-09-26T11:03:57.335Z,51.80
2018-09-26T11:06:25.792Z,51.40
2018-09-26T11:08:54.186Z,51.20
2018-09-26T11:11:22.577Z,52.20
2018-09-26T11:13:51.134Z,53.30
2018-09-26T11:16:20.112Z,52.80
2018-09-26T11:18:48.519Z,53.00
2018-09-26T11:21:16.822Z,52.00
2018-09-26T11:23:45.278Z,52.30
2018-09-26T11:26:13.819Z,51.20
2018-09-26T11:28:42.148Z,50.40
2018-09-26T11:31:10.525Z,51.20
2018-09-26T11:33:39.528Z,50.30
2018-09-26T11:36:07.870Z,49.80
2018-09-26T11:38:36.252Z,49.80
2018-09-26T11:41:04.658Z,50.80
2018-09-26T11:43:33.011Z,51.60
2018-09-26T11:46:01.421Z,52.00
2018-09-26T11:48:29.801Z,51.30
2018-09-26T11:50:58.337Z,52.40
2018-09-26T11:53:26.696Z,51.40
2018-09-26T11:55:55.819Z,50.40
2018-09-26T11:58:24.856Z,49.50
2018-09-26T12:00:53.759Z,49.50
2018-09-26T12:03:22.212Z,48.90
2018-09-26T12:05:50.742Z,49.40
2018-09-26T12:08:19.317Z,48.60
2018-09-26T12:10:47.583Z,48.80
2018-09-26T12:13:15.971Z,49.40
2018-09-26T12:15:44.506Z,49.20
2018-09-26T12:18:12.957Z,49.90
2018-09-26T12:20:41.411Z,51.70
2018-09-26T12:23:09.832Z,52.40
2018-09-26T12:25:38.213Z,50.90
2018-09-26T12:28:06.629Z,51.70
2018-09-26T12:30:35.129Z,50.20
2018-09-26T12:33:03.643Z,50.50
2018-09-26T12:35:32.010Z,52.00
2018-09-26T12:38:00.410Z,52.10
2018-09-26T12:40:28.833Z,51.50
2018-09-26T12:42:57.804Z,52.10
2018-09-26T12:45:26.470Z,50.00
2018-09-26T12:47:54.910Z,49.50
2018-09-26T12:50:23.199Z,48.20
2018-09-26T12:52:51.633Z,48.30
2018-09-26T12:55:20.554Z,48.80
2018-09-26T12:57:48.907Z,49.50
2018-09-26T13:00:17.388Z,46.20
2018-09-26T13:02:45.804Z,46.40
2018-09-26T13:05:14.080Z,47.00
2018-09-26T13:07:42.604Z,47.00
2018-09-26T13:10:11.066Z,46.00
2018-09-26T13:12:39.372Z,44.80
2018-09-26T13:15:07.766Z,43.90
2018-09-26T13:17:36.142Z,42.30
2018-09-26T13:20:05.232Z,43.50
2018-09-26T13:22:33.552Z,44.50
2018-09-26T13:25:01.995Z,46.10
2018-09-26T13:27:30.341Z,46.50
2018-09-26T13:29:58.750Z,45.00
2018-09-26T13:32:27.266Z,46.20
2018-09-26T13:34:55.553Z,46.90
2018-09-26T13:37:24.542Z,47.70
2018-09-26T13:39:52.959Z,49.10
2018-09-26T13:42:22.030Z,48.10
2018-09-26T13:44:50.363Z,47.90
2018-09-26T13:47:18.838Z,48.50
2018-09-26T13:49:47.343Z,47.20
2018-09-26T13:52:15.722Z,47.30
2018-09-26T13:54:44.189Z,48.40
2018-09-26T13:57:12.551Z,48.60
2018-09-26T13:59:41.015Z,49.30
2018-09-26T14:02:09.393Z,49.60
2018-09-26T14:04:37.864Z,49.00
2018-09-26T14:07:06.490Z,50.20
2018-09-26T14:09:34.940Z,50.80
2018-09-26T14:12:03.775Z,51.20
2018-09-26T14:14:32.127Z,50.60
2018-09-26T14:17:00.469Z,51.70
2018-09-26T14:19:29.495Z,51.10
2018-09-26T14:21:57.878Z,51.60
2018-09-26T14:24:26.262Z,52.90
2018-09-26T14:26:55.457Z,52.80
2018-09-26T14:29:24.505Z,51.00
2018-09-26T14:31:52.837Z,51.90
2018-09-26T14:34:21.197Z,51.90
2018-09-26T14:36:50.296Z,52.30
2018-09-26T14:39:18.727Z,51.70
2018-09-26T14:41:47.153Z,52.50
2018-09-26T14:44:15.628Z,52.20
2018-09-26T14:46:44.015Z,51.50
2018-09-26T14:49:12.496Z,51.30
2018-09-26T14:51:40.856Z,50.80
2018-09-26T14:54:09.308Z,50.10
2018-09-26T14:56:37.641Z,50.10
2018-09-26T14:59:06.227Z,50.40
2018-09-26T15:01:35.165Z,50.20
2018-09-26T15:04:04.245Z,47.80
2018-09-26T15:06:32.569Z,49.60
2018-09-26T15:09:01.007Z,49.10
2018-09-26T15:11:29.778Z,48.20
2018-09-26T15:13:58.722Z,45.60
2018-09-26T15:16:27.682Z,44.90
2018-09-26T15:18:56.244Z,45.00
2018-09-26T15:21:24.544Z,44.10
2018-09-26T15:23:52.928Z,44.60
2018-09-26T15:26:21.393Z,44.20
2018-09-26T15:28:49.863Z,44.60
2018-09-26T15:31:18.563Z,44.30
2018-09-26T15:33:46.954Z,45.30
2018-09-26T15:36:15.434Z,45.40
2018-09-26T15:38:43.815Z,45.00
2018-09-26T15:41:12.391Z,43.10
2018-09-26T15:43:41.274Z,43.90
2018-09-26T15:46:09.905Z,42.70
2018-09-26T15:48:38.312Z,43.70
2018-09-26T15:51:07.233Z,44.40
2018-09-26T15:53:36.267Z,44.80
2018-09-26T15:56:04.675Z,44.70
2018-09-26T15:58:33.592Z,45.50
2018-09-26T16:01:02.718Z,45.90
2018-09-26T16:03:31.041Z,46.20
2018-09-26T16:05:59.483Z,46.50
2018-09-26T16:08:27.949Z,46.70
2018-09-26T16:10:56.303Z,46.90
2018-09-26T16:13:24.664Z,47.00
2018-09-26T16:15:53.590Z,47.50
2018-09-26T16:18:22.056Z,47.90
2018-09-26T16:20:50.435Z,47.60
2018-09-26T16:23:18.885Z,47.30
2018-09-26T16:25:47.270Z,47.10
2018-09-26T16:28:15.666Z,47.00
2018-09-26T16:30:44.100Z,46.50
2018-09-26T16:33:12.514Z,45.90
2018-09-26T16:35:40.932Z,46.70
2018-09-26T16:38:09.319Z,47.00
2018-09-26T16:40:37.712Z,46.30
2018-09-26T16:43:06.378Z,47.00
2018-09-26T16:45:34.801Z,47.30
2018-09-26T16:48:03.175Z,48.00
2018-09-26T16:50:31.510Z,48.70
2018-09-26T16:52:59.943Z,49.30
2018-09-26T16:55:28.533Z,49.80
2018-09-26T16:57:57.288Z,50.30
2018-09-26T17:00:25.777Z,50.30
2018-09-26T17:02:54.180Z,49.90
2018-09-26T17:05:22.690Z,48.90
2018-09-26T17:07:51.280Z,49.00
2018-09-26T17:10:19.692Z,51.10
2018-09-26T17:12:48.143Z,51.10
2018-09-26T17:15:16.490Z,51.70
2018-09-26T17:17:44.889Z,53.70
2018-09-26T17:20:13.276Z,52.40
2018-09-26T17:22:41.698Z,53.60
2018-09-26T17:25:10.088Z,53.80
2018-09-26T17:27:38.694Z,54.10
2018-09-26T17:30:07.090Z,55.10
2018-09-26T17:32:36.088Z,54.60
2018-09-26T17:35:04.581Z,56.70
2018-09-26T17:37:33.687Z,56.30
2018-09-26T17:40:02.077Z,57.30
2018-09-26T17:42:30.453Z,55.70
2018-09-26T17:44:59.611Z,58.80
2018-09-26T17:47:27.953Z,56.80
2018-09-26T17:49:56.511Z,56.20
2018-09-26T17:52:25.592Z,56.40
2018-09-26T17:54:53.929Z,56.80
2018-09-26T17:57:23.156Z,58.30
2018-09-26T17:59:51.613Z,58.00
2018-09-26T18:02:19.983Z,58.40
2018-09-26T18:04:48.367Z,60.90
2018-09-26T18:07:17.307Z,60.50
2018-09-26T18:09:45.688Z,59.10
2018-09-26T18:12:14.115Z,60.20
2018-09-26T18:14:43.373Z,59.30
2018-09-26T18:17:11.791Z,59.70
2018-09-26T18:19:40.286Z,60.70
2018-09-26T18:22:08.810Z,66.60
2018-09-26T18:24:37.206Z,67.50
2018-09-26T18:27:05.759Z,67.10
2018-09-26T18:29:34.274Z,69.10
2018-09-26T18:32:02.689Z,70.40
2018-09-26T18:34:31.214Z,71.20
2018-09-26T18:36:59.785Z,68.90
2018-09-26T18:39:28.245Z,68.10
2018-09-26T18:41:56.644Z,69.00
2018-09-26T18:44:25.014Z,68.80
2018-09-26T18:46:53.585Z,67.80
2018-09-26T18:49:22.091Z,68.60
2018-09-26T18:51:50.647Z,68.50
2018-09-26T18:54:19.104Z,69.90
2018-09-26T18:56:47.547Z,70.90
2018-09-26T18:59:16.055Z,75.50
2018-09-26T19:01:44.419Z,77.00
2018-09-26T19:04:13.169Z,79.10
2018-09-26T19:06:42.448Z,85.90
2018-09-26T19:09:11.466Z,86.40
2018-09-26T19:11:39.925Z,86.80
2018-09-26T19:14:08.427Z,87.50
2018-09-26T19:16:37.069Z,90.70
2018-09-26T19:19:05.724Z,91.10
2018-09-26T19:21:34.649Z,92.10
2018-09-26T19:24:02.982Z,92.70
2018-09-26T19:26:31.379Z,93.20
2018-09-26T19:28:59.883Z,93.20
2018-09-26T19:31:28.285Z,93.30
2018-09-26T19:33:56.727Z,93.60
2018-09-26T19:36:26.001Z,94.10
2018-09-26T19:38:54.485Z,94.40
2018-09-26T19:41:22.829Z,94.60
2018-09-26T19:43:51.368Z,95.20
2018-09-26T19:46:19.728Z,94.50
2018-09-26T19:48:48.257Z,94.40
2018-09-26T19:51:16.694Z,94.00
2018-09-26T19:53:45.123Z,94.40
2018-09-26T19:56:13.705Z,94.70
2018-09-26T19:58:42.280Z,94.90
2018-09-26T20:01:10.683Z,95.80
2018-09-26T20:03:39.059Z,96.60
2018-09-26T20:06:07.475Z,97.10
2018-09-26T20:08:35.862Z,97.00
2018-09-26T20:11:04.409Z,97.30
2018-09-26T20:13:32.811Z,97.50
2018-09-26T20:16:01.204Z,97.90
2018-09-26T20:18:30.386Z,98.40
2018-09-26T20:20:58.814Z,98.80
2018-09-26T20:23:27.401Z,98.70
2018-09-26T20:25:55.630Z,98.70
2018-09-26T20:28:24.044Z,99.40
2018-09-26T20:30:52.513Z,99.60
2018-09-26T20:33:21.679Z,99.70
2018-09-26T20:35:50.138Z,99.90
2018-09-26T20:38:18.575Z,99.90
2018-09-26T20:40:46.993Z,99.90
2018-09-26T20:43:15.549Z,99.90
2018-09-26T20:45:43.959Z,99.90
2018-09-26T20:48:12.481Z,99.90
2018-09-26T20:50:41.031Z,99.90
2018-09-26T20:53:09.384Z,99.90
2018-09-26T20:55:37.783Z,99.90
2018-09-26T20:58:06.336Z,99.90
2018-09-26T21:00:34.786Z,99.90
2018-09-26T21:03:04.363Z,99.90
2018-09-26T21:05:32.863Z,99.90
2018-09-26T21:08:02.014Z,99.90
2018-09-26T21:10:30.457Z,99.90
2018-09-26T21:12:58.930Z,99.90
2018-09-26T21:15:27.394Z,99.90
2018-09-26T21:17:55.809Z,99.90
2018-09-26T21:20:24.845Z,99.90
2018-09-26T21:22:53.313Z,99.90
2018-09-26T21:25:21.716Z,99.90
2018-09-26T21:27:50.085Z,99.90
2018-09-26T21:30:18.635Z,99.90
2018-09-26T21:32:47.741Z,99.90
2018-09-26T21:35:16.255Z,99.90
2018-09-26T21:37:44.762Z,99.90
2018-09-26T21:40:13.240Z,99.90
2018-09-26T21:42:41.636Z,99.90
2018-09-26T21:45:10.104Z,99.90
2018-09-26T21:47:38.629Z,99.90
2018-09-26T21:50:07.500Z,99.90
2018-09-26T21:52:36.033Z,99.90
2018-09-26T21:55:04.551Z,99.90
2018-09-26T21:57:32.971Z,99.90
2018-09-26T22:00:01.448Z,99.90
2018-09-26T22:02:30.008Z,99.90
2018-09-26T22:04:59.300Z,99.90
2018-09-26T22:07:27.936Z,99.90
2018-09-26T22:09:56.513Z,99.90
2018-09-26T22:12:25.153Z,99.90
2018-09-26T22:14:54.274Z,99.90
2018-09-26T22:17:23.388Z,99.90
2018-09-26T22:19:51.970Z,99.90
2018-09-26T22:22:20.638Z,99.90
2018-09-26T22:24:49.150Z,99.90
2018-09-26T22:27:17.735Z,99.90
2018-09-26T22:29:46.292Z,99.90
2018-09-26T22:32:15.037Z,99.90
2018-09-26T22:34:43.653Z,99.90
2018-09-26T22:37:12.462Z,99.90
2018-09-26T22:39:41.240Z,99.90
2018-09-26T22:42:10.846Z,99.90
2018-09-26T22:44:39.704Z,99.90
2018-09-26T22:47:08.283Z,99.90
2018-09-26T22:49:37.083Z,99.90
2018-09-26T22:52:06.053Z,99.90
2018-09-26T22:54:35.104Z,99.90
2018-09-26T22:57:05.655Z,99.90
2018-09-26T22:59:34.521Z,99.90
2018-09-26T23:02:03.640Z,99.90
2018-09-26T23:04:32.137Z,99.90
2018-09-26T23:07:00.587Z,99.90
2018-09-26T23:09:29.088Z,99.90
2018-09-26T23:11:57.548Z,99.90
2018-09-26T23:14:26.081Z,99.90
2018-09-26T23:16:54.640Z,99.90
2018-09-26T23:19:23.202Z,99.90
2018-09-26T23:21:51.744Z,99.90
2018-09-26T23:24:20.207Z,99.90
2018-09-26T23:26:48.865Z,99.90
2018-09-26T23:29:17.400Z,99.90
2018-09-26T23:31:46.614Z,99.90
2018-09-26T23:34:15.824Z,99.90
2018-09-26T23:36:44.303Z,99.90
2018-09-26T23:39:12.811Z,99.90
2018-09-26T23:41:41.350Z,99.90
2018-09-26T23:44:10.198Z,99.90
2018-09-26T23:46:38.763Z,99.90
2018-09-26T23:49:07.279Z,99.90
2018-09-26T23:51:35.825Z,99.90
2018-09-26T23:54:04.516Z,99.90
2018-09-26T23:56:32.980Z,99.90
2018-09-26T23:59:01.508Z,99.90
